Hauptseite
METAR-TAF:

METAR-TAF

Flughäfen :

Flugplatz Ansbach-Katterbach

Ansbach, Deutschland

Breite: 49-19N, Länge: 010-38E, Höhe: 467 m

Beobachtung

Neuester Wetterbericht von vor 1 Stunde und 1 Minuten, um 17:56 UTC
Wind 4 kt aus Südwest
Temperatur 2°C
Luftfeuchtigkeit 93%
Luftdruck 1020 hPa
Sichtweite 10 km oder mehr
Aufgelockert bewölkt in der Höhe von 4400 ft
Durchbrochene Bewölkung in der Höhe von 5500 ft

METAR: ETEB 181756Z AUTO 23004KT 9999 SCT044 BKN055 02/01 A3012 RMK AO2 RAE1656UPB1656E1657RAB1657E1658 SLP234 P0000 60001 T00200014 10066 20016 52019 $

Zeit: 19:57 (18:57 UTC)


TAF: fehlend

Wetterbeobachtungen und Prognosen von mehr als 4000 Flughäfen (METAR und TAF Bericht).

Die verfügbaren Stationen werden durch gelbe und rote Markierungen auf der Karte dargestellt.

Führen Sie die Maus auf sie, um den Namen der Station zu sehen.

Darauf klicken, um die Beobachtung von Wetterbeobachtungen und Prognosen zu sehen.

Um die Karte zu ändern : klicken Sie auf den grünen Tasten mit einem schwarzen Kreuz Zum Vergrößern, auf den grünen Button mit einem Gedankenstrich zu verkleinern, oder auf die grünen Pfeile für benachbarte Karten.


METAR-TAF: